createdAt,value
2019-04-04T00:09:32.818Z,0.0
2019-04-04T00:19:42.929Z,0.0
2019-04-04T00:29:57.610Z,0.0
2019-04-04T00:40:11.790Z,0.0
2019-04-04T00:50:23.944Z,0.0
2019-04-04T01:00:38.050Z,0.0
2019-04-04T01:11:23.566Z,0.0
2019-04-04T01:21:37.574Z,0.0
2019-04-04T01:31:50.990Z,0.0
2019-04-04T01:42:02.390Z,0.0
2019-04-04T01:52:52.352Z,0.0
2019-04-04T02:03:06.507Z,0.0
2019-04-04T02:13:21.435Z,0.0
2019-04-04T02:23:35.956Z,0.0
2019-04-04T02:33:49.996Z,0.0
2019-04-04T02:44:04.344Z,0.0
2019-04-04T02:54:16.375Z,0.0
2019-04-04T03:04:30.761Z,0.0
2019-04-04T03:14:44.895Z,0.0
2019-04-04T03:25:32.858Z,0.0
2019-04-04T03:35:44.972Z,0.0
2019-04-04T03:46:00.591Z,0.0
2019-04-04T03:56:13.905Z,0.0
2019-04-04T04:06:27.578Z,0.0
2019-04-04T04:17:12.778Z,0.0
2019-04-04T04:27:26.641Z,0.0
2019-04-04T04:37:40.083Z,4.0
2019-04-04T04:47:55.822Z,44.0
2019-04-04T04:58:37.909Z,64.0
2019-04-04T05:09:22.770Z,196.0
2019-04-04T05:20:12.423Z,428.0
2019-04-04T05:30:23.649Z,948.0
2019-04-04T05:40:36.930Z,1160.0
2019-04-04T05:50:50.243Z,1304.0
2019-04-04T06:01:37.897Z,1160.0
2019-04-04T06:11:53.008Z,812.0
2019-04-04T06:22:06.604Z,820.0
2019-04-04T06:32:21.083Z,596.0
2019-04-04T06:42:35.910Z,808.0
2019-04-04T06:52:48.255Z,876.0
2019-04-04T07:03:34.463Z,1016.0
2019-04-04T07:17:40.185Z,880.0
2019-04-04T07:28:19.662Z,1096.0
2019-04-04T07:39:00.274Z,1604.0
2019-04-04T07:49:15.148Z,1524.0
2019-04-04T08:00:07.276Z,2208.0
2019-04-04T08:10:58.827Z,2184.0
2019-04-04T08:21:27.047Z,1812.0
2019-04-04T08:32:34.603Z,1756.0
2019-04-04T08:43:23.560Z,2268.0
2019-04-04T08:54:13.030Z,2732.0
2019-04-04T09:04:29.175Z,3528.0
2019-04-04T09:14:43.597Z,3344.0
2019-04-04T09:24:57.607Z,3760.0
2019-04-04T09:35:11.991Z,3008.0
2019-04-04T09:45:57.346Z,4824.0
2019-04-04T09:56:10.738Z,4468.0
2019-04-04T10:06:25.024Z,4792.0
2019-04-04T10:16:39.533Z,3720.0
2019-04-04T10:26:53.369Z,3616.0
2019-04-04T10:37:07.703Z,2932.0
2019-04-04T10:47:21.876Z,2596.0
2019-04-04T11:00:18.432Z,3208.0
2019-04-04T11:12:08.316Z,4584.0
2019-04-04T11:23:02.396Z,4636.0
2019-04-04T11:33:13.536Z,4208.0
2019-04-04T11:43:59.267Z,4808.0
2019-04-04T11:54:13.736Z,3640.0
2019-04-04T12:04:27.721Z,3124.0
2019-04-04T12:15:22.674Z,3056.0
2019-04-04T12:26:08.522Z,3680.0
2019-04-04T12:36:59.678Z,5768.0
2019-04-04T12:48:09.281Z,5868.0
2019-04-04T12:58:22.963Z,5976.0
2019-04-04T13:09:08.560Z,4976.0
2019-04-04T13:19:55.973Z,5364.0
2019-04-04T13:31:13.913Z,4756.0
2019-04-04T13:42:03.258Z,4840.0
2019-04-04T13:52:26.101Z,4540.0
2019-04-04T14:03:10.270Z,3176.0
2019-04-04T14:13:58.796Z,2956.0
2019-04-04T14:24:44.886Z,1948.0
2019-04-04T14:35:33.769Z,2448.0
2019-04-04T14:45:47.727Z,2872.0
2019-04-04T14:56:33.243Z,2424.0
2019-04-04T15:07:18.229Z,2928.0
2019-04-04T15:17:32.549Z,3756.0
2019-04-04T15:27:46.907Z,4088.0
2019-04-04T15:39:02.388Z,2200.0
2019-04-04T15:49:16.012Z,1560.0
2019-04-04T16:00:01.506Z,1620.0
2019-04-04T16:10:47.568Z,1712.0
2019-04-04T16:21:38.241Z,816.0
2019-04-04T16:33:46.019Z,988.0
2019-04-04T16:43:59.970Z,1784.0
2019-04-04T16:54:17.694Z,912.0
2019-04-04T17:05:03.449Z,632.0
2019-04-04T17:16:09.092Z,724.0
2019-04-04T17:26:23.409Z,604.0
2019-04-04T17:37:08.239Z,364.0
2019-04-04T17:48:00.348Z,356.0
2019-04-04T17:58:16.146Z,112.0
2019-04-04T18:08:33.930Z,48.0
2019-04-04T18:19:09.833Z,8.0
2019-04-04T18:30:02.203Z,0.0
2019-04-04T19:08:36.353Z,0.0
2019-04-04T19:21:55.435Z,0.0
2019-04-04T19:34:25.428Z,0.0
2019-04-04T19:44:52.196Z,0.0
2019-04-04T19:54:51.868Z,0.0
2019-04-04T20:05:09.732Z,0.0
2019-04-04T20:15:24.825Z,0.0
2019-04-04T20:25:38.437Z,0.0
2019-04-04T20:36:27.696Z,0.0
2019-04-04T20:47:13.342Z,0.0
2019-04-04T20:58:00.136Z,0.0
2019-04-04T21:08:54.907Z,0.0
2019-04-04T21:19:08.384Z,0.0
2019-04-04T21:29:54.964Z,0.0
2019-04-04T21:40:39.860Z,0.0
2019-04-04T21:51:25.793Z,0.0
2019-04-04T22:02:12.268Z,0.0
2019-04-04T22:13:06.102Z,0.0
2019-04-04T22:23:54.346Z,0.0
2019-04-04T22:34:05.669Z,0.0
2019-04-04T22:44:55.861Z,0.0
2019-04-04T22:55:09.867Z,0.0
2019-04-04T23:05:24.599Z,0.0
2019-04-04T23:16:13.180Z,0.0
2019-04-04T23:27:03.019Z,0.0
2019-04-04T23:37:17.117Z,0.0
2019-04-04T23:47:28.304Z,0.0
2019-04-04T23:57:42.501Z,0.0
